sensor_id;sensor_type;location;lat;lon;timestamp;P1;durP1;ratioP1;P2;durP2;ratioP2
6334;SDS011;3200;48.204;11.576;2024-01-30T00:02:11;6.03;;;4.20;;
6334;SDS011;3200;48.204;11.576;2024-01-30T00:04:37;7.00;;;4.10;;
6334;SDS011;3200;48.204;11.576;2024-01-30T00:07:03;14.03;;;4.90;;
6334;SDS011;3200;48.204;11.576;2024-01-30T00:09:29;8.15;;;5.13;;
6334;SDS011;3200;48.204;11.576;2024-01-30T00:11:55;7.67;;;4.60;;
6334;SDS011;3200;48.204;11.576;2024-01-30T00:14:21;9.07;;;5.05;;
6334;SDS011;3200;48.204;11.576;2024-01-30T00:16:47;10.03;;;5.80;;
6334;SDS011;3200;48.204;11.576;2024-01-30T00:19:12;9.90;;;5.97;;
6334;SDS011;3200;48.204;11.576;2024-01-30T00:21:38;6.57;;;4.93;;
6334;SDS011;3200;48.204;11.576;2024-01-30T00:24:04;8.70;;;5.80;;
6334;SDS011;3200;48.204;11.576;2024-01-30T00:26:30;8.88;;;5.10;;
6334;SDS011;3200;48.204;11.576;2024-01-30T00:28:56;8.40;;;4.67;;
6334;SDS011;3200;48.204;11.576;2024-01-30T00:31:22;10.43;;;5.70;;
6334;SDS011;3200;48.204;11.576;2024-01-30T00:33:47;5.90;;;4.90;;
6334;SDS011;3200;48.204;11.576;2024-01-30T00:36:13;9.33;;;6.33;;
6334;SDS011;3200;48.204;11.576;2024-01-30T00:38:39;7.30;;;4.90;;
6334;SDS011;3200;48.204;11.576;2024-01-30T00:41:06;8.57;;;4.78;;
6334;SDS011;3200;48.204;11.576;2024-01-30T00:43:33;8.63;;;4.97;;
6334;SDS011;3200;48.204;11.576;2024-01-30T00:45:59;10.50;;;5.30;;
6334;SDS011;3200;48.204;11.576;2024-01-30T00:48:28;7.68;;;5.47;;
6334;SDS011;3200;48.204;11.576;2024-01-30T00:50:53;9.50;;;5.40;;
6334;SDS011;3200;48.204;11.576;2024-01-30T00:53:19;8.20;;;5.00;;
6334;SDS011;3200;48.204;11.576;2024-01-30T00:55:45;7.17;;;5.27;;
6334;SDS011;3200;48.204;11.576;2024-01-30T00:58:11;8.50;;;5.87;;
6334;SDS011;3200;48.204;11.576;2024-01-30T01:00:37;10.43;;;5.70;;
6334;SDS011;3200;48.204;11.576;2024-01-30T01:03:04;8.10;;;5.07;;
6334;SDS011;3200;48.204;11.576;2024-01-30T01:05:29;11.13;;;5.47;;
6334;SDS011;3200;48.204;11.576;2024-01-30T01:07:55;10.57;;;5.72;;
6334;SDS011;3200;48.204;11.576;2024-01-30T01:10:21;7.80;;;4.93;;
6334;SDS011;3200;48.204;11.576;2024-01-30T01:12:47;9.70;;;4.63;;
6334;SDS011;3200;48.204;11.576;2024-01-30T01:15:14;12.52;;;5.45;;
6334;SDS011;3200;48.204;11.576;2024-01-30T01:17:40;10.77;;;5.88;;
6334;SDS011;3200;48.204;11.576;2024-01-30T01:20:06;10.48;;;5.05;;
6334;SDS011;3200;48.204;11.576;2024-01-30T01:22:33;7.25;;;4.53;;
6334;SDS011;3200;48.204;11.576;2024-01-30T01:25:00;6.05;;;4.65;;
6334;SDS011;3200;48.204;11.576;2024-01-30T01:27:26;12.85;;;4.30;;
6334;SDS011;3200;48.204;11.576;2024-01-30T01:29:52;8.32;;;4.90;;
6334;SDS011;3200;48.204;11.576;2024-01-30T01:32:18;11.00;;;5.05;;
6334;SDS011;3200;48.204;11.576;2024-01-30T01:34:44;5.25;;;3.80;;
6334;SDS011;3200;48.204;11.576;2024-01-30T01:37:10;6.47;;;4.47;;
6334;SDS011;3200;48.204;11.576;2024-01-30T01:39:36;8.40;;;4.50;;
6334;SDS011;3200;48.204;11.576;2024-01-30T01:42:02;13.63;;;4.20;;
6334;SDS011;3200;48.204;11.576;2024-01-30T01:44:28;6.13;;;4.30;;
6334;SDS011;3200;48.204;11.576;2024-01-30T01:46:54;5.90;;;4.13;;
6334;SDS011;3200;48.204;11.576;2024-01-30T01:49:23;7.85;;;5.18;;
6334;SDS011;3200;48.204;11.576;2024-01-30T01:51:51;5.53;;;3.90;;
6334;SDS011;3200;48.204;11.576;2024-01-30T01:54:21;5.70;;;4.55;;
6334;SDS011;3200;48.204;11.576;2024-01-30T01:56:49;3.97;;;3.33;;
6334;SDS011;3200;48.204;11.576;2024-01-30T01:59:16;5.50;;;3.80;;
6334;SDS011;3200;48.204;11.576;2024-01-30T02:01:43;5.88;;;4.38;;
6334;SDS011;3200;48.204;11.576;2024-01-30T02:04:11;8.07;;;4.43;;
6334;SDS011;3200;48.204;11.576;2024-01-30T02:06:37;7.00;;;3.40;;
6334;SDS011;3200;48.204;11.576;2024-01-30T02:09:03;5.03;;;3.53;;
6334;SDS011;3200;48.204;11.576;2024-01-30T02:11:29;7.72;;;4.45;;
6334;SDS011;3200;48.204;11.576;2024-01-30T02:13:55;4.85;;;3.55;;
6334;SDS011;3200;48.204;11.576;2024-01-30T02:16:21;4.68;;;3.50;;
6334;SDS011;3200;48.204;11.576;2024-01-30T02:18:47;8.33;;;3.50;;
6334;SDS011;3200;48.204;11.576;2024-01-30T02:21:16;6.23;;;3.30;;
6334;SDS011;3200;48.204;11.576;2024-01-30T02:23:43;5.07;;;3.75;;
6334;SDS011;3200;48.204;11.576;2024-01-30T02:26:11;4.35;;;3.00;;
6334;SDS011;3200;48.204;11.576;2024-01-30T02:28:38;6.57;;;3.55;;
6334;SDS011;3200;48.204;11.576;2024-01-30T02:31:04;5.50;;;3.40;;
6334;SDS011;3200;48.204;11.576;2024-01-30T02:33:30;6.65;;;4.05;;
6334;SDS011;3200;48.204;11.576;2024-01-30T02:35:57;5.97;;;3.35;;
6334;SDS011;3200;48.204;11.576;2024-01-30T02:38:23;5.90;;;4.07;;
6334;SDS011;3200;48.204;11.576;2024-01-30T02:40:50;5.20;;;3.55;;
6334;SDS011;3200;48.204;11.576;2024-01-30T02:43:15;4.77;;;3.50;;
6334;SDS011;3200;48.204;11.576;2024-01-30T02:45:42;4.40;;;3.22;;
6334;SDS011;3200;48.204;11.576;2024-01-30T02:48:08;4.25;;;2.95;;
6334;SDS011;3200;48.204;11.576;2024-01-30T02:50:33;3.47;;;2.73;;
6334;SDS011;3200;48.204;11.576;2024-01-30T02:53:00;5.72;;;3.65;;
6334;SDS011;3200;48.204;11.576;2024-01-30T02:55:25;3.03;;;2.57;;
6334;SDS011;3200;48.204;11.576;2024-01-30T02:57:51;4.87;;;3.40;;
6334;SDS011;3200;48.204;11.576;2024-01-30T03:00:17;5.60;;;3.30;;
6334;SDS011;3200;48.204;11.576;2024-01-30T03:02:45;6.50;;;3.00;;
6334;SDS011;3200;48.204;11.576;2024-01-30T03:05:11;4.05;;;3.15;;
6334;SDS011;3200;48.204;11.576;2024-01-30T03:07:37;3.28;;;2.70;;
6334;SDS011;3200;48.204;11.576;2024-01-30T03:10:04;7.50;;;3.95;;
6334;SDS011;3200;48.204;11.576;2024-01-30T03:12:31;3.72;;;3.00;;
6334;SDS011;3200;48.204;11.576;2024-01-30T03:14:57;5.18;;;3.00;;
6334;SDS011;3200;48.204;11.576;2024-01-30T03:17:23;8.88;;;3.17;;
6334;SDS011;3200;48.204;11.576;2024-01-30T03:19:49;4.43;;;3.00;;
6334;SDS011;3200;48.204;11.576;2024-01-30T03:22:15;5.50;;;3.45;;
6334;SDS011;3200;48.204;11.576;2024-01-30T03:24:41;4.82;;;2.95;;
6334;SDS011;3200;48.204;11.576;2024-01-30T03:27:08;4.33;;;3.07;;
6334;SDS011;3200;48.204;11.576;2024-01-30T03:29:34;5.57;;;2.80;;
6334;SDS011;3200;48.204;11.576;2024-01-30T03:31:59;5.13;;;2.83;;
6334;SDS011;3200;48.204;11.576;2024-01-30T03:34:25;3.00;;;2.23;;
6334;SDS011;3200;48.204;11.576;2024-01-30T03:36:51;5.93;;;3.23;;
6334;SDS011;3200;48.204;11.576;2024-01-30T03:39:17;4.40;;;2.90;;
6334;SDS011;3200;48.204;11.576;2024-01-30T03:41:42;4.27;;;2.93;;
6334;SDS011;3200;48.204;11.576;2024-01-30T03:44:09;5.05;;;3.20;;
6334;SDS011;3200;48.204;11.576;2024-01-30T03:46:35;5.55;;;3.10;;
6334;SDS011;3200;48.204;11.576;2024-01-30T03:49:01;4.40;;;3.00;;
6334;SDS011;3200;48.204;11.576;2024-01-30T03:51:28;5.65;;;3.22;;
6334;SDS011;3200;48.204;11.576;2024-01-30T03:53:53;6.10;;;2.70;;
6334;SDS011;3200;48.204;11.576;2024-01-30T03:56:19;4.35;;;3.47;;
6334;SDS011;3200;48.204;11.576;2024-01-30T03:58:45;3.40;;;2.50;;
6334;SDS011;3200;48.204;11.576;2024-01-30T04:01:14;3.70;;;2.70;;
6334;SDS011;3200;48.204;11.576;2024-01-30T04:03:40;3.13;;;2.50;;
6334;SDS011;3200;48.204;11.576;2024-01-30T04:06:08;3.95;;;2.90;;
6334;SDS011;3200;48.204;11.576;2024-01-30T04:08:34;5.40;;;2.30;;
6334;SDS011;3200;48.204;11.576;2024-01-30T04:11:06;3.33;;;2.90;;
6334;SDS011;3200;48.204;11.576;2024-01-30T04:13:32;4.88;;;2.67;;
6334;SDS011;3200;48.204;11.576;2024-01-30T04:15:59;3.35;;;2.33;;
6334;SDS011;3200;48.204;11.576;2024-01-30T04:18:28;5.28;;;3.25;;
6334;SDS011;3200;48.204;11.576;2024-01-30T04:20:54;6.22;;;2.65;;
6334;SDS011;3200;48.204;11.576;2024-01-30T04:23:20;4.95;;;2.92;;
6334;SDS011;3200;48.204;11.576;2024-01-30T04:25:46;3.28;;;2.63;;
6334;SDS011;3200;48.204;11.576;2024-01-30T04:28:12;4.93;;;3.10;;
6334;SDS011;3200;48.204;11.576;2024-01-30T04:30:38;3.40;;;2.53;;
6334;SDS011;3200;48.204;11.576;2024-01-30T04:33:04;4.30;;;3.20;;
6334;SDS011;3200;48.204;11.576;2024-01-30T04:35:30;3.60;;;2.70;;
6334;SDS011;3200;48.204;11.576;2024-01-30T04:37:56;8.70;;;3.20;;
6334;SDS011;3200;48.204;11.576;2024-01-30T04:40:22;6.53;;;3.20;;
6334;SDS011;3200;48.204;11.576;2024-01-30T04:42:48;3.00;;;2.30;;
6334;SDS011;3200;48.204;11.576;2024-01-30T04:45:14;3.17;;;2.63;;
6334;SDS011;3200;48.204;11.576;2024-01-30T04:47:40;3.78;;;2.40;;
6334;SDS011;3200;48.204;11.576;2024-01-30T04:50:06;7.50;;;3.08;;
6334;SDS011;3200;48.204;11.576;2024-01-30T04:52:34;4.57;;;3.28;;
6334;SDS011;3200;48.204;11.576;2024-01-30T04:55:00;3.45;;;2.40;;
6334;SDS011;3200;48.204;11.576;2024-01-30T04:57:26;3.13;;;2.37;;
6334;SDS011;3200;48.204;11.576;2024-01-30T04:59:52;4.10;;;2.15;;
6334;SDS011;3200;48.204;11.576;2024-01-30T05:02:19;3.35;;;2.38;;
6334;SDS011;3200;48.204;11.576;2024-01-30T05:04:44;6.33;;;3.20;;
6334;SDS011;3200;48.204;11.576;2024-01-30T05:07:10;4.60;;;3.03;;
6334;SDS011;3200;48.204;11.576;2024-01-30T05:09:36;5.13;;;2.50;;
6334;SDS011;3200;48.204;11.576;2024-01-30T05:12:02;6.87;;;2.70;;
6334;SDS011;3200;48.204;11.576;2024-01-30T05:14:28;5.20;;;2.63;;
6334;SDS011;3200;48.204;11.576;2024-01-30T05:16:54;5.70;;;2.00;;
6334;SDS011;3200;48.204;11.576;2024-01-30T05:19:19;3.73;;;2.30;;
6334;SDS011;3200;48.204;11.576;2024-01-30T05:21:48;3.47;;;2.78;;
6334;SDS011;3200;48.204;11.576;2024-01-30T05:24:15;4.40;;;3.15;;
6334;SDS011;3200;48.204;11.576;2024-01-30T05:26:51;3.97;;;2.67;;
6334;SDS011;3200;48.204;11.576;2024-01-30T05:30:22;19.33;;;3.67;;
6334;SDS011;3200;48.204;11.576;2024-01-30T05:32:57;7.00;;;2.80;;
6334;SDS011;3200;48.204;11.576;2024-01-30T05:35:23;5.87;;;2.23;;
6334;SDS011;3200;48.204;11.576;2024-01-30T05:37:49;4.13;;;2.40;;
6334;SDS011;3200;48.204;11.576;2024-01-30T05:40:15;6.32;;;2.70;;
6334;SDS011;3200;48.204;11.576;2024-01-30T05:42:41;6.03;;;2.65;;
6334;SDS011;3200;48.204;11.576;2024-01-30T05:45:08;4.30;;;3.38;;
6334;SDS011;3200;48.204;11.576;2024-01-30T05:47:34;3.28;;;2.17;;
6334;SDS011;3200;48.204;11.576;2024-01-30T05:50:00;3.63;;;2.92;;
6334;SDS011;3200;48.204;11.576;2024-01-30T05:52:26;3.70;;;2.72;;
6334;SDS011;3200;48.204;11.576;2024-01-30T05:54:52;12.00;;;3.80;;
6334;SDS011;3200;48.204;11.576;2024-01-30T05:57:18;4.73;;;2.70;;
6334;SDS011;3200;48.204;11.576;2024-01-30T05:59:44;7.60;;;2.93;;
6334;SDS011;3200;48.204;11.576;2024-01-30T06:02:10;3.30;;;2.60;;
6334;SDS011;3200;48.204;11.576;2024-01-30T06:04:36;6.90;;;2.85;;
6334;SDS011;3200;48.204;11.576;2024-01-30T06:07:02;3.23;;;2.80;;
6334;SDS011;3200;48.204;11.576;2024-01-30T06:09:29;6.05;;;2.70;;
6334;SDS011;3200;48.204;11.576;2024-01-30T06:11:55;3.60;;;2.67;;
6334;SDS011;3200;48.204;11.576;2024-01-30T06:14:21;6.27;;;2.37;;
6334;SDS011;3200;48.204;11.576;2024-01-30T06:16:46;5.43;;;2.27;;
6334;SDS011;3200;48.204;11.576;2024-01-30T06:19:12;6.53;;;3.37;;
6334;SDS011;3200;48.204;11.576;2024-01-30T06:21:38;3.47;;;2.50;;
6334;SDS011;3200;48.204;11.576;2024-01-30T06:24:04;6.03;;;3.70;;
6334;SDS011;3200;48.204;11.576;2024-01-30T06:26:30;5.00;;;2.65;;
6334;SDS011;3200;48.204;11.576;2024-01-30T06:28:56;10.90;;;3.13;;
6334;SDS011;3200;48.204;11.576;2024-01-30T06:31:22;4.43;;;2.70;;
6334;SDS011;3200;48.204;11.576;2024-01-30T06:33:49;5.13;;;2.90;;
6334;SDS011;3200;48.204;11.576;2024-01-30T06:36:15;4.75;;;2.80;;
6334;SDS011;3200;48.204;11.576;2024-01-30T06:38:41;3.50;;;2.27;;
6334;SDS011;3200;48.204;11.576;2024-01-30T06:41:07;3.90;;;3.07;;
6334;SDS011;3200;48.204;11.576;2024-01-30T06:43:33;6.40;;;3.05;;
6334;SDS011;3200;48.204;11.576;2024-01-30T06:45:59;7.73;;;3.60;;
6334;SDS011;3200;48.204;11.576;2024-01-30T06:48:25;15.80;;;4.50;;
6334;SDS011;3200;48.204;11.576;2024-01-30T06:50:53;14.13;;;3.92;;
6334;SDS011;3200;48.204;11.576;2024-01-30T06:53:19;4.32;;;2.85;;
6334;SDS011;3200;48.204;11.576;2024-01-30T06:55:45;3.88;;;2.30;;
6334;SDS011;3200;48.204;11.576;2024-01-30T06:58:11;3.70;;;2.97;;
6334;SDS011;3200;48.204;11.576;2024-01-30T07:00:37;8.97;;;3.40;;
6334;SDS011;3200;48.204;11.576;2024-01-30T07:03:03;8.43;;;3.55;;
6334;SDS011;3200;48.204;11.576;2024-01-30T07:05:29;5.13;;;2.60;;
6334;SDS011;3200;48.204;11.576;2024-01-30T07:07:55;5.33;;;3.37;;
6334;SDS011;3200;48.204;11.576;2024-01-30T07:10:21;7.23;;;3.27;;
6334;SDS011;3200;48.204;11.576;2024-01-30T07:12:46;4.93;;;2.40;;
6334;SDS011;3200;48.204;11.576;2024-01-30T07:15:12;8.77;;;3.87;;
6334;SDS011;3200;48.204;11.576;2024-01-30T07:17:41;18.67;;;3.97;;
6334;SDS011;3200;48.204;11.576;2024-01-30T07:20:07;13.73;;;3.70;;
6334;SDS011;3200;48.204;11.576;2024-01-30T07:22:34;13.82;;;4.47;;
6334;SDS011;3200;48.204;11.576;2024-01-30T07:25:00;7.20;;;3.47;;
6334;SDS011;3200;48.204;11.576;2024-01-30T07:27:25;12.90;;;4.17;;
6334;SDS011;3200;48.204;11.576;2024-01-30T07:29:51;14.37;;;5.10;;
6334;SDS011;3200;48.204;11.576;2024-01-30T07:32:17;15.53;;;6.43;;
6334;SDS011;3200;48.204;11.576;2024-01-30T07:34:43;9.85;;;4.97;;
6334;SDS011;3200;48.204;11.576;2024-01-30T07:37:09;12.20;;;7.07;;
6334;SDS011;3200;48.204;11.576;2024-01-30T07:39:36;14.32;;;8.30;;
6334;SDS011;3200;48.204;11.576;2024-01-30T07:42:02;17.13;;;7.93;;
6334;SDS011;3200;48.204;11.576;2024-01-30T07:44:28;13.55;;;3.97;;
6334;SDS011;3200;48.204;11.576;2024-01-30T07:46:54;8.93;;;5.60;;
6334;SDS011;3200;48.204;11.576;2024-01-30T07:49:20;17.50;;;8.20;;
6334;SDS011;3200;48.204;11.576;2024-01-30T07:51:45;13.80;;;8.27;;
6334;SDS011;3200;48.204;11.576;2024-01-30T07:54:11;12.97;;;4.33;;
6334;SDS011;3200;48.204;11.576;2024-01-30T07:56:37;6.33;;;3.53;;
6334;SDS011;3200;48.204;11.576;2024-01-30T07:59:03;6.20;;;3.40;;
6334;SDS011;3200;48.204;11.576;2024-01-30T08:01:29;4.50;;;2.90;;
6334;SDS011;3200;48.204;11.576;2024-01-30T08:03:54;4.00;;;2.90;;
6334;SDS011;3200;48.204;11.576;2024-01-30T08:06:20;8.20;;;3.87;;
6334;SDS011;3200;48.204;11.576;2024-01-30T08:08:46;10.40;;;3.00;;
6334;SDS011;3200;48.204;11.576;2024-01-30T08:11:12;13.27;;;4.10;;
6334;SDS011;3200;48.204;11.576;2024-01-30T08:13:37;7.50;;;3.10;;
6334;SDS011;3200;48.204;11.576;2024-01-30T08:16:03;12.73;;;3.83;;
6334;SDS011;3200;48.204;11.576;2024-01-30T08:18:30;7.50;;;3.25;;
6334;SDS011;3200;48.204;11.576;2024-01-30T08:20:55;5.83;;;3.03;;
6334;SDS011;3200;48.204;11.576;2024-01-30T08:23:21;3.50;;;2.50;;
6334;SDS011;3200;48.204;11.576;2024-01-30T08:25:47;6.77;;;2.43;;
6334;SDS011;3200;48.204;11.576;2024-01-30T08:28:13;4.63;;;2.90;;
6334;SDS011;3200;48.204;11.576;2024-01-30T08:30:38;4.83;;;2.67;;
6334;SDS011;3200;48.204;11.576;2024-01-30T08:33:05;6.63;;;3.13;;
6334;SDS011;3200;48.204;11.576;2024-01-30T08:35:30;14.20;;;3.43;;
6334;SDS011;3200;48.204;11.576;2024-01-30T08:37:58;4.47;;;2.92;;
6334;SDS011;3200;48.204;11.576;2024-01-30T08:40:25;7.03;;;2.40;;
6334;SDS011;3200;48.204;11.576;2024-01-30T08:42:50;3.90;;;2.40;;
6334;SDS011;3200;48.204;11.576;2024-01-30T08:45:16;2.90;;;1.90;;
6334;SDS011;3200;48.204;11.576;2024-01-30T08:47:42;5.90;;;2.50;;
6334;SDS011;3200;48.204;11.576;2024-01-30T08:50:08;6.80;;;2.57;;
6334;SDS011;3200;48.204;11.576;2024-01-30T08:52:33;3.63;;;1.93;;
6334;SDS011;3200;48.204;11.576;2024-01-30T08:55:00;4.60;;;2.00;;
6334;SDS011;3200;48.204;11.576;2024-01-30T08:57:25;7.70;;;2.85;;
6334;SDS011;3200;48.204;11.576;2024-01-30T08:59:55;5.53;;;2.20;;
6334;SDS011;3200;48.204;11.576;2024-01-30T09:02:21;14.85;;;2.38;;
6334;SDS011;3200;48.204;11.576;2024-01-30T09:04:47;4.80;;;2.00;;
6334;SDS011;3200;48.204;11.576;2024-01-30T09:07:13;5.20;;;2.10;;
6334;SDS011;3200;48.204;11.576;2024-01-30T09:09:39;10.00;;;4.50;;
6334;SDS011;3200;48.204;11.576;2024-01-30T09:12:08;10.68;;;5.00;;
6334;SDS011;3200;48.204;11.576;2024-01-30T09:14:37;7.30;;;2.83;;
6334;SDS011;3200;48.204;11.576;2024-01-30T09:17:04;8.68;;;2.40;;
6334;SDS011;3200;48.204;11.576;2024-01-30T09:19:30;4.70;;;2.50;;
6334;SDS011;3200;48.204;11.576;2024-01-30T09:21:56;4.50;;;1.83;;
6334;SDS011;3200;48.204;11.576;2024-01-30T09:24:22;4.38;;;1.90;;
6334;SDS011;3200;48.204;11.576;2024-01-30T09:26:47;4.03;;;1.90;;
6334;SDS011;3200;48.204;11.576;2024-01-30T09:29:13;4.47;;;1.53;;
6334;SDS011;3200;48.204;11.576;2024-01-30T09:31:39;7.30;;;2.47;;
6334;SDS011;3200;48.204;11.576;2024-01-30T09:34:08;4.93;;;2.25;;
6334;SDS011;3200;48.204;11.576;2024-01-30T09:36:34;2.97;;;1.80;;
6334;SDS011;3200;48.204;11.576;2024-01-30T09:39:00;2.60;;;1.60;;
6334;SDS011;3200;48.204;11.576;2024-01-30T09:41:26;4.10;;;1.50;;
6334;SDS011;3200;48.204;11.576;2024-01-30T09:43:56;3.08;;;1.52;;
6334;SDS011;3200;48.204;11.576;2024-01-30T09:46:23;2.00;;;1.27;;
6334;SDS011;3200;48.204;11.576;2024-01-30T09:48:53;3.20;;;2.50;;
6334;SDS011;3200;48.204;11.576;2024-01-30T09:51:20;3.08;;;1.88;;
6334;SDS011;3200;48.204;11.576;2024-01-30T09:53:47;6.03;;;3.42;;
6334;SDS011;3200;48.204;11.576;2024-01-30T09:56:14;5.22;;;2.30;;
6334;SDS011;3200;48.204;11.576;2024-01-30T09:58:40;5.93;;;2.20;;
6334;SDS011;3200;48.204;11.576;2024-01-30T10:01:07;3.13;;;1.52;;
6334;SDS011;3200;48.204;11.576;2024-01-30T10:03:32;6.60;;;1.60;;
6334;SDS011;3200;48.204;11.576;2024-01-30T10:05:59;5.68;;;1.52;;
6334;SDS011;3200;48.204;11.576;2024-01-30T10:08:26;2.22;;;1.23;;
6334;SDS011;3200;48.204;11.576;2024-01-30T10:10:52;4.28;;;1.13;;
6334;SDS011;3200;48.204;11.576;2024-01-30T10:13:18;4.30;;;1.30;;
6334;SDS011;3200;48.204;11.576;2024-01-30T10:15:44;4.53;;;1.50;;
6334;SDS011;3200;48.204;11.576;2024-01-30T10:18:10;5.22;;;1.73;;
6334;SDS011;3200;48.204;11.576;2024-01-30T10:20:36;7.35;;;1.50;;
6334;SDS011;3200;48.204;11.576;2024-01-30T10:23:02;3.17;;;1.50;;
6334;SDS011;3200;48.204;11.576;2024-01-30T10:25:29;4.63;;;1.98;;
6334;SDS011;3200;48.204;11.576;2024-01-30T10:27:57;3.25;;;1.10;;
6334;SDS011;3200;48.204;11.576;2024-01-30T10:30:24;2.88;;;1.40;;
6334;SDS011;3200;48.204;11.576;2024-01-30T10:32:51;1.85;;;1.58;;
6334;SDS011;3200;48.204;11.576;2024-01-30T10:35:17;5.33;;;1.93;;
6334;SDS011;3200;48.204;11.576;2024-01-30T10:37:43;2.53;;;1.70;;
6334;SDS011;3200;48.204;11.576;2024-01-30T10:40:13;2.50;;;1.55;;
6334;SDS011;3200;48.204;11.576;2024-01-30T10:42:44;6.40;;;1.88;;
6334;SDS011;3200;48.204;11.576;2024-01-30T10:47:39;2.53;;;1.60;;
6334;SDS011;3200;48.204;11.576;2024-01-30T10:50:08;3.20;;;1.63;;
6334;SDS011;3200;48.204;11.576;2024-01-30T10:52:35;2.45;;;1.52;;
6334;SDS011;3200;48.204;11.576;2024-01-30T10:55:02;3.08;;;1.63;;
6334;SDS011;3200;48.204;11.576;2024-01-30T10:57:36;4.30;;;2.08;;
6334;SDS011;3200;48.204;11.576;2024-01-30T11:00:09;2.67;;;1.40;;
6334;SDS011;3200;48.204;11.576;2024-01-30T11:02:41;8.07;;;2.22;;
6334;SDS011;3200;48.204;11.576;2024-01-30T11:05:09;6.32;;;1.92;;
6334;SDS011;3200;48.204;11.576;2024-01-30T11:07:38;6.43;;;2.08;;
6334;SDS011;3200;48.204;11.576;2024-01-30T11:10:06;5.00;;;1.55;;
6334;SDS011;3200;48.204;11.576;2024-01-30T11:12:37;6.53;;;1.95;;
6334;SDS011;3200;48.204;11.576;2024-01-30T11:15:10;6.97;;;1.50;;
6334;SDS011;3200;48.204;11.576;2024-01-30T11:17:42;4.70;;;1.67;;
6334;SDS011;3200;48.204;11.576;2024-01-30T11:22:51;3.35;;;2.65;;
6334;SDS011;3200;48.204;11.576;2024-01-30T11:25:19;2.75;;;1.50;;
6334;SDS011;3200;48.204;11.576;2024-01-30T11:27:49;9.65;;;2.30;;
6334;SDS011;3200;48.204;11.576;2024-01-30T11:30:30;5.68;;;2.10;;
6334;SDS011;3200;48.204;11.576;2024-01-30T11:35:42;3.90;;;1.90;;
6334;SDS011;3200;48.204;11.576;2024-01-30T11:38:10;4.70;;;1.98;;
6334;SDS011;3200;48.204;11.576;2024-01-30T11:40:39;5.38;;;1.73;;
6334;SDS011;3200;48.204;11.576;2024-01-30T11:43:07;3.97;;;2.10;;
6334;SDS011;3200;48.204;11.576;2024-01-30T11:45:34;3.25;;;2.05;;
6334;SDS011;3200;48.204;11.576;2024-01-30T11:48:01;3.45;;;1.98;;
6334;SDS011;3200;48.204;11.576;2024-01-30T11:50:32;3.75;;;1.85;;
6334;SDS011;3200;48.204;11.576;2024-01-30T11:52:59;6.28;;;1.73;;
6334;SDS011;3200;48.204;11.576;2024-01-30T11:55:26;3.33;;;1.70;;
6334;SDS011;3200;48.204;11.576;2024-01-30T11:57:57;2.63;;;1.98;;
6334;SDS011;3200;48.204;11.576;2024-01-30T12:00:24;2.08;;;1.58;;
6334;SDS011;3200;48.204;11.576;2024-01-30T12:02:50;2.97;;;1.60;;
6334;SDS011;3200;48.204;11.576;2024-01-30T12:05:21;3.65;;;1.80;;
6334;SDS011;3200;48.204;11.576;2024-01-30T12:07:51;5.88;;;2.45;;
6334;SDS011;3200;48.204;11.576;2024-01-30T12:10:18;3.45;;;1.85;;
6334;SDS011;3200;48.204;11.576;2024-01-30T12:12:48;4.80;;;2.10;;
6334;SDS011;3200;48.204;11.576;2024-01-30T12:15:16;3.47;;;2.25;;
6334;SDS011;3200;48.204;11.576;2024-01-30T12:17:44;3.92;;;1.90;;
6334;SDS011;3200;48.204;11.576;2024-01-30T12:22:37;2.95;;;2.00;;
6334;SDS011;3200;48.204;11.576;2024-01-30T12:25:12;2.90;;;1.85;;
6334;SDS011;3200;48.204;11.576;2024-01-30T12:27:43;7.53;;;2.20;;
6334;SDS011;3200;48.204;11.576;2024-01-30T12:30:12;3.10;;;1.95;;
6334;SDS011;3200;48.204;11.576;2024-01-30T12:32:39;5.30;;;1.90;;
6334;SDS011;3200;48.204;11.576;2024-01-30T12:35:10;4.35;;;1.70;;
6334;SDS011;3200;48.204;11.576;2024-01-30T12:37:38;4.70;;;1.77;;
6334;SDS011;3200;48.204;11.576;2024-01-30T12:40:05;2.50;;;1.80;;
6334;SDS011;3200;48.204;11.576;2024-01-30T12:42:33;8.18;;;2.15;;
6334;SDS011;3200;48.204;11.576;2024-01-30T12:44:59;4.30;;;1.70;;
6334;SDS011;3200;48.204;11.576;2024-01-30T12:47:26;2.50;;;1.40;;
6334;SDS011;3200;48.204;11.576;2024-01-30T12:49:52;5.43;;;1.60;;
6334;SDS011;3200;48.204;11.576;2024-01-30T12:52:18;2.85;;;1.85;;
6334;SDS011;3200;48.204;11.576;2024-01-30T12:54:49;7.47;;;1.80;;
6334;SDS011;3200;48.204;11.576;2024-01-30T12:57:16;2.60;;;1.90;;
6334;SDS011;3200;48.204;11.576;2024-01-30T12:59:44;10.90;;;2.20;;
6334;SDS011;3200;48.204;11.576;2024-01-30T13:02:11;4.32;;;2.38;;
6334;SDS011;3200;48.204;11.576;2024-01-30T13:04:38;3.88;;;2.67;;
6334;SDS011;3200;48.204;11.576;2024-01-30T13:07:05;4.38;;;2.10;;
6334;SDS011;3200;48.204;11.576;2024-01-30T13:09:31;3.05;;;1.73;;
6334;SDS011;3200;48.204;11.576;2024-01-30T13:11:57;4.00;;;2.40;;
6334;SDS011;3200;48.204;11.576;2024-01-30T13:14:24;4.32;;;2.45;;
6334;SDS011;3200;48.204;11.576;2024-01-30T13:16:51;9.20;;;2.20;;
6334;SDS011;3200;48.204;11.576;2024-01-30T13:19:17;3.53;;;1.90;;
6334;SDS011;3200;48.204;11.576;2024-01-30T13:21:43;4.20;;;1.95;;
6334;SDS011;3200;48.204;11.576;2024-01-30T13:24:09;4.65;;;1.65;;
6334;SDS011;3200;48.204;11.576;2024-01-30T13:26:35;5.32;;;3.60;;
6334;SDS011;3200;48.204;11.576;2024-01-30T13:29:02;4.25;;;3.05;;
6334;SDS011;3200;48.204;11.576;2024-01-30T13:31:28;2.85;;;1.85;;
6334;SDS011;3200;48.204;11.576;2024-01-30T13:33:55;2.60;;;1.67;;
6334;SDS011;3200;48.204;11.576;2024-01-30T13:36:21;4.30;;;3.13;;
6334;SDS011;3200;48.204;11.576;2024-01-30T13:38:47;3.88;;;2.15;;
6334;SDS011;3200;48.204;11.576;2024-01-30T13:41:13;2.75;;;1.65;;
6334;SDS011;3200;48.204;11.576;2024-01-30T13:43:39;7.97;;;1.73;;
6334;SDS011;3200;48.204;11.576;2024-01-30T13:46:05;4.23;;;1.83;;
6334;SDS011;3200;48.204;11.576;2024-01-30T13:48:31;4.40;;;1.98;;
6334;SDS011;3200;48.204;11.576;2024-01-30T13:50:57;6.03;;;2.40;;
6334;SDS011;3200;48.204;11.576;2024-01-30T13:53:25;5.15;;;2.67;;
6334;SDS011;3200;48.204;11.576;2024-01-30T13:55:51;4.10;;;1.73;;
6334;SDS011;3200;48.204;11.576;2024-01-30T13:58:17;4.43;;;2.87;;
6334;SDS011;3200;48.204;11.576;2024-01-30T14:00:43;3.10;;;2.13;;
6334;SDS011;3200;48.204;11.576;2024-01-30T14:03:09;3.10;;;1.90;;
6334;SDS011;3200;48.204;11.576;2024-01-30T14:05:34;5.83;;;1.80;;
6334;SDS011;3200;48.204;11.576;2024-01-30T14:08:00;4.60;;;2.23;;
6334;SDS011;3200;48.204;11.576;2024-01-30T14:10:27;3.90;;;2.20;;
6334;SDS011;3200;48.204;11.576;2024-01-30T14:12:52;2.27;;;1.43;;
6334;SDS011;3200;48.204;11.576;2024-01-30T14:15:18;2.20;;;1.60;;
6334;SDS011;3200;48.204;11.576;2024-01-30T14:17:44;3.10;;;1.60;;
6334;SDS011;3200;48.204;11.576;2024-01-30T14:20:14;4.85;;;1.98;;
6334;SDS011;3200;48.204;11.576;2024-01-30T14:22:44;5.72;;;1.90;;
6334;SDS011;3200;48.204;11.576;2024-01-30T14:25:10;2.80;;;1.52;;
6334;SDS011;3200;48.204;11.576;2024-01-30T14:27:37;5.07;;;2.40;;
6334;SDS011;3200;48.204;11.576;2024-01-30T14:30:03;9.70;;;2.15;;
6334;SDS011;3200;48.204;11.576;2024-01-30T14:32:29;3.72;;;1.70;;
6334;SDS011;3200;48.204;11.576;2024-01-30T14:34:55;3.50;;;1.80;;
6334;SDS011;3200;48.204;11.576;2024-01-30T14:37:21;11.17;;;2.27;;
6334;SDS011;3200;48.204;11.576;2024-01-30T14:39:48;9.07;;;1.90;;
6334;SDS011;3200;48.204;11.576;2024-01-30T14:42:14;3.25;;;1.98;;
6334;SDS011;3200;48.204;11.576;2024-01-30T14:44:40;10.40;;;2.65;;
6334;SDS011;3200;48.204;11.576;2024-01-30T14:47:07;4.15;;;2.45;;
6334;SDS011;3200;48.204;11.576;2024-01-30T14:49:33;4.50;;;2.05;;
6334;SDS011;3200;48.204;11.576;2024-01-30T14:51:59;8.68;;;2.28;;
6334;SDS011;3200;48.204;11.576;2024-01-30T14:54:26;5.60;;;2.10;;
6334;SDS011;3200;48.204;11.576;2024-01-30T14:56:52;10.02;;;2.60;;
6334;SDS011;3200;48.204;11.576;2024-01-30T14:59:19;3.88;;;2.00;;
6334;SDS011;3200;48.204;11.576;2024-01-30T15:01:45;6.00;;;2.00;;
6334;SDS011;3200;48.204;11.576;2024-01-30T15:04:11;5.22;;;2.72;;
6334;SDS011;3200;48.204;11.576;2024-01-30T15:06:37;9.63;;;3.00;;
6334;SDS011;3200;48.204;11.576;2024-01-30T15:09:03;4.15;;;2.10;;